Time;durP1;ratioP1;P1;durP2;ratioP2;P2;SDS_P1;SDS_P2;PMS_P1;PMS_P2;Temp;Humidity;BMP_temperature;BMP_pressure;BME280_temperature;BME280_humidity;BME280_pressure;Samples;Min_cycle;Max_cycle;Signal;HPM_P1;HPM_P2
2020/12/03 00:00:42;;;;;;;65.90;40.90;;;;;;;;;;5054212;28;20181;-86
2020/12/03 00:03:16;;;;;;;58.20;38.40;;;;;;;;;;5055766;28;20182;-86
2020/12/03 00:05:47;;;;;;;62.63;40.53;;;;;;;;;;5055485;28;20250;-87
2020/12/03 00:08:18;;;;;;;58.50;39.67;;;;;;;;;;5055680;28;20174;-86
2020/12/03 00:10:46;;;;;;;60.90;40.63;;;;;;;;;;5054175;28;20174;-87
2020/12/03 00:13:25;;;;;;;61.13;40.80;;;;;;;;;;5054248;28;20168;-87
2020/12/03 00:15:56;;;;;;;61.47;39.50;;;;;;;;;;5055746;28;20702;-87
2020/12/03 00:18:24;;;;;;;60.17;40.13;;;;;;;;;;5054050;28;20187;-87
2020/12/03 00:20:52;;;;;;;60.87;39.63;;;;;;;;;;5054097;28;20204;-87
2020/12/03 00:23:25;;;;;;;62.93;41.10;;;;;;;;;;5054015;28;20561;-87
2020/12/03 00:25:55;;;;;;;61.57;39.43;;;;;;;;;;5055072;28;20265;-87
2020/12/03 00:28:27;;;;;;;67.90;43.53;;;;;;;;;;5053968;28;20648;-88
2020/12/03 00:30:58;;;;;;;61.80;40.00;;;;;;;;;;5053783;28;20555;-88
2020/12/03 00:33:31;;;;;;;61.97;40.60;;;;;;;;;;5054256;28;20173;-88
2020/12/03 00:36:03;;;;;;;61.43;40.57;;;;;;;;;;5053593;28;20201;-88
2020/12/03 00:38:35;;;;;;;58.93;38.90;;;;;;;;;;5053863;28;20260;-88
2020/12/03 00:41:03;;;;;;;59.50;37.77;;;;;;;;;;5053736;28;20184;-88
2020/12/03 00:43:38;;;;;;;60.97;39.77;;;;;;;;;;5053681;28;20191;-88
2020/12/03 00:46:09;;;;;;;67.13;40.97;;;;;;;;;;5053398;28;20206;-86
2020/12/03 00:48:40;;;;;;;60.17;39.23;;;;;;;;;;5054396;28;20204;-86
2020/12/03 00:51:12;;;;;;;63.50;40.67;;;;;;;;;;5052911;28;20181;-86
2020/12/03 00:53:44;;;;;;;64.50;41.17;;;;;;;;;;5054735;28;20541;-87
2020/12/03 00:56:18;;;;;;;65.57;40.20;;;;;;;;;;5054752;28;20189;-87
2020/12/03 00:58:49;;;;;;;59.23;39.97;;;;;;;;;;5053329;28;20651;-87
2020/12/03 01:01:25;;;;;;;56.07;37.07;;;;;;;;;;5053237;28;20176;-86
2020/12/03 01:03:55;;;;;;;54.40;37.50;;;;;;;;;;5054760;28;20175;-88
2020/12/03 01:06:28;;;;;;;57.17;37.77;;;;;;;;;;5054147;28;20215;-88
2020/12/03 01:09:00;;;;;;;53.03;35.80;;;;;;;;;;5053116;28;20265;-88
2020/12/03 01:11:31;;;;;;;53.13;37.10;;;;;;;;;;5053886;28;20177;-87
2020/12/03 01:14:04;;;;;;;61.97;39.17;;;;;;;;;;5054213;28;20637;-87
2020/12/03 01:16:35;;;;;;;60.70;39.33;;;;;;;;;;5054143;28;20222;-88
2020/12/03 01:19:08;;;;;;;59.20;39.93;;;;;;;;;;5052857;28;20179;-88
2020/12/03 01:21:40;;;;;;;64.20;40.27;;;;;;;;;;5053063;28;20234;-88
2020/12/03 01:24:06;;;;;;;58.60;39.03;;;;;;;;;;5052820;28;20182;-86
2020/12/03 01:26:40;;;;;;;60.37;40.53;;;;;;;;;;5054234;28;20204;-85
2020/12/03 01:29:11;;;;;;;58.00;37.33;;;;;;;;;;5054305;28;20159;-86
2020/12/03 01:31:38;;;;;;;55.10;37.80;;;;;;;;;;5054202;28;20172;-85
2020/12/03 01:34:09;;;;;;;58.87;37.50;;;;;;;;;;5054061;28;20179;-85
2020/12/03 01:36:41;;;;;;;57.37;38.33;;;;;;;;;;5053784;28;20199;-86
2020/12/03 01:39:12;;;;;;;62.50;41.00;;;;;;;;;;5053633;28;20193;-86
2020/12/03 01:41:43;;;;;;;57.60;38.17;;;;;;;;;;5052459;28;20180;-86
2020/12/03 01:44:14;;;;;;;62.20;39.43;;;;;;;;;;5052324;28;20182;-86
2020/12/03 01:46:43;;;;;;;62.30;42.00;;;;;;;;;;5053537;28;20215;-86
2020/12/03 01:49:17;;;;;;;62.00;40.00;;;;;;;;;;5053579;28;20279;-86
2020/12/03 01:51:47;;;;;;;56.80;37.77;;;;;;;;;;5052241;28;20261;-86
2020/12/03 01:54:19;;;;;;;59.27;39.03;;;;;;;;;;5052368;28;20188;-86
2020/12/03 01:56:57;;;;;;;61.63;40.77;;;;;;;;;;5053483;28;20660;-86
2020/12/03 01:59:35;;;;;;;58.10;41.00;;;;;;;;;;5053369;28;20168;-86
2020/12/03 02:02:08;;;;;;;63.87;39.97;;;;;;;;;;5051901;28;20178;-86
2020/12/03 02:04:41;;;;;;;65.77;41.80;;;;;;;;;;5051744;28;20176;-86
2020/12/03 02:07:19;;;;;;;61.03;40.37;;;;;;;;;;5052001;28;20609;-86
2020/12/03 02:09:51;;;;;;;57.33;37.20;;;;;;;;;;5052050;28;20173;-86
2020/12/03 02:12:19;;;;;;;62.97;40.33;;;;;;;;;;5051964;28;20174;-86
2020/12/03 02:14:50;;;;;;;58.07;38.67;;;;;;;;;;5051851;28;20180;-86
2020/12/03 02:17:24;;;;;;;61.13;40.17;;;;;;;;;;5051598;28;20211;-86
2020/12/03 02:19:56;;;;;;;65.30;41.37;;;;;;;;;;5052719;28;20179;-86
2020/12/03 02:22:28;;;;;;;65.47;40.23;;;;;;;;;;5052004;28;20177;-86
2020/12/03 02:24:58;;;;;;;62.80;41.70;;;;;;;;;;5053233;28;20208;-86
2020/12/03 02:27:30;;;;;;;63.03;40.83;;;;;;;;;;5053026;28;20569;-86
2020/12/03 02:30:04;;;;;;;56.37;38.43;;;;;;;;;;5052974;28;20172;-86
2020/12/03 02:32:38;;;;;;;61.43;40.93;;;;;;;;;;5051728;28;20179;-86
2020/12/03 02:35:11;;;;;;;59.73;38.10;;;;;;;;;;5052511;28;20512;-86
2020/12/03 02:37:38;;;;;;;60.67;39.47;;;;;;;;;;5051587;28;20605;-86
2020/12/03 02:40:09;;;;;;;57.73;38.63;;;;;;;;;;5052973;28;20168;-86
2020/12/03 02:42:41;;;;;;;63.50;40.57;;;;;;;;;;5051875;28;20206;-86
2020/12/03 02:45:08;;;;;;;61.20;39.33;;;;;;;;;;5052705;28;20205;-86
2020/12/03 02:47:40;;;;;;;60.03;38.87;;;;;;;;;;5052060;28;20168;-86
2020/12/03 02:50:10;;;;;;;59.33;39.00;;;;;;;;;;5051529;28;20204;-86
2020/12/03 02:52:37;;;;;;;57.67;38.20;;;;;;;;;;5051472;28;20169;-86
2020/12/03 02:55:09;;;;;;;62.10;38.10;;;;;;;;;;5051623;28;20181;-86
2020/12/03 02:57:38;;;;;;;57.77;37.80;;;;;;;;;;5051426;28;20177;-86
2020/12/03 03:00:11;;;;;;;61.53;38.60;;;;;;;;;;5051788;28;20189;-86
2020/12/03 03:02:38;;;;;;;58.73;39.67;;;;;;;;;;5051418;28;20271;-86
2020/12/03 03:05:07;;;;;;;57.87;39.53;;;;;;;;;;5051551;28;20740;-86
2020/12/03 03:07:37;;;;;;;60.43;39.00;;;;;;;;;;5052888;28;20170;-86
2020/12/03 03:10:10;;;;;;;58.47;39.67;;;;;;;;;;5052633;28;20172;-86
2020/12/03 03:12:41;;;;;;;65.20;41.37;;;;;;;;;;5052570;28;20251;-86
2020/12/03 03:15:11;;;;;;;63.43;38.33;;;;;;;;;;5053677;28;20196;-86
2020/12/03 03:17:44;;;;;;;56.80;38.57;;;;;;;;;;5055148;28;20233;-86
2020/12/03 03:20:14;;;;;;;62.70;40.73;;;;;;;;;;5056708;28;20257;-86
2020/12/03 03:22:41;;;;;;;57.13;38.10;;;;;;;;;;5055180;28;20217;-86
2020/12/03 03:25:09;;;;;;;62.17;39.80;;;;;;;;;;5054847;28;20202;-86
2020/12/03 03:27:41;;;;;;;58.03;37.60;;;;;;;;;;5056186;28;20261;-86
2020/12/03 03:30:15;;;;;;;59.60;39.20;;;;;;;;;;5055092;28;20231;-86
2020/12/03 03:32:44;;;;;;;61.27;38.53;;;;;;;;;;5054851;28;20181;-86
2020/12/03 03:35:11;;;;;;;57.43;37.97;;;;;;;;;;5055934;28;20231;-86
2020/12/03 03:37:41;;;;;;;61.90;37.97;;;;;;;;;;5056348;28;20183;-86
2020/12/03 03:40:07;;;;;;;51.40;34.97;;;;;;;;;;5054819;28;20173;-86
2020/12/03 03:42:37;;;;;;;61.10;38.37;;;;;;;;;;5054697;28;20227;-86
2020/12/03 03:45:10;;;;;;;59.83;39.53;;;;;;;;;;5054558;28;20202;-86
2020/12/03 03:47:41;;;;;;;63.47;38.73;;;;;;;;;;5054574;28;20167;-86
2020/12/03 03:50:12;;;;;;;57.50;36.53;;;;;;;;;;5055877;28;20593;-86
2020/12/03 03:52:38;;;;;;;61.63;38.33;;;;;;;;;;5054415;28;20579;-86
2020/12/03 03:55:09;;;;;;;59.07;35.90;;;;;;;;;;5054914;28;20182;-86
2020/12/03 03:57:41;;;;;;;55.83;35.83;;;;;;;;;;5054473;28;20534;-86
2020/12/03 04:00:11;;;;;;;59.27;36.03;;;;;;;;;;5054394;28;20177;-86
2020/12/03 04:02:44;;;;;;;56.23;37.93;;;;;;;;;;5054379;28;20253;-86
2020/12/03 04:05:11;;;;;;;60.50;37.90;;;;;;;;;;5054179;28;20210;-86
2020/12/03 04:07:44;;;;;;;54.07;36.90;;;;;;;;;;5055040;28;20177;-86
2020/12/03 04:10:15;;;;;;;59.20;38.80;;;;;;;;;;5054143;28;20177;-86
2020/12/03 04:12:48;;;;;;;60.23;38.57;;;;;;;;;;5055373;28;20176;-86
2020/12/03 04:15:20;;;;;;;57.17;37.40;;;;;;;;;;5055585;28;20180;-86
2020/12/03 04:17:56;;;;;;;56.67;37.93;;;;;;;;;;5065273;22;20587;-89
2020/12/03 04:20:28;;;;;;;57.47;36.90;;;;;;;;;;5050650;28;20180;-89
2020/12/03 04:23:00;;;;;;;59.13;37.70;;;;;;;;;;5050597;28;20183;-88
2020/12/03 04:25:30;;;;;;;54.57;35.83;;;;;;;;;;5050220;28;20227;-89
2020/12/03 04:28:02;;;;;;;54.27;36.83;;;;;;;;;;5050285;28;20271;-89
2020/12/03 04:30:33;;;;;;;54.47;36.13;;;;;;;;;;5050775;28;20180;-89
2020/12/03 04:33:10;;;;;;;52.87;34.80;;;;;;;;;;5050898;28;20643;-89
2020/12/03 04:35:41;;;;;;;58.97;36.00;;;;;;;;;;5051402;28;20226;-89
2020/12/03 04:38:14;;;;;;;60.23;37.70;;;;;;;;;;5050294;28;20203;-88
2020/12/03 04:40:46;;;;;;;61.93;37.27;;;;;;;;;;5050756;28;20230;-89
2020/12/03 04:43:23;;;;;;;57.30;37.33;;;;;;;;;;5050323;28;20179;-89
2020/12/03 04:46:01;;;;;;;60.77;38.33;;;;;;;;;;5050137;28;20213;-89
2020/12/03 04:48:41;;;;;;;59.07;36.90;;;;;;;;;;5050124;28;20200;-89
2020/12/03 04:51:40;;;;;;;62.13;37.83;;;;;;;;;;5050487;28;20188;-88
2020/12/03 04:54:27;;;;;;;62.40;39.33;;;;;;;;;;5050480;28;20321;-89
2020/12/03 04:57:05;;;;;;;55.10;36.53;;;;;;;;;;5034736;28;20194;-89
2020/12/03 04:59:41;;;;;;;58.20;37.47;;;;;;;;;;5049985;28;20177;-89
2020/12/03 05:02:22;;;;;;;67.03;38.20;;;;;;;;;;5050342;28;20259;-89
2020/12/03 05:04:59;;;;;;;55.63;37.40;;;;;;;;;;5049801;28;20192;-88
2020/12/03 05:07:31;;;;;;;59.03;37.97;;;;;;;;;;5049848;28;20200;-89
2020/12/03 05:10:06;;;;;;;51.13;34.80;;;;;;;;;;5049775;28;20175;-88
2020/12/03 05:12:45;;;;;;;55.97;37.83;;;;;;;;;;5049957;28;20259;-89
2020/12/03 05:15:21;;;;;;;61.07;38.37;;;;;;;;;;5049610;28;20177;-88
2020/12/03 05:18:10;;;;;;;55.93;37.20;;;;;;;;;;5034085;28;20204;-89
2020/12/03 05:20:40;;;;;;;57.57;38.00;;;;;;;;;;5049553;28;20184;-89
2020/12/03 05:23:11;;;;;;;63.97;38.70;;;;;;;;;;5049538;28;20184;-88
2020/12/03 05:25:44;;;;;;;57.00;36.97;;;;;;;;;;5049513;28;20201;-88
2020/12/03 05:28:28;;;;;;;58.20;36.90;;;;;;;;;;5049403;28;20203;-89
2020/12/03 05:31:16;;;;;;;55.87;37.50;;;;;;;;;;5050422;28;20629;-89
2020/12/03 05:33:49;;;;;;;63.13;38.80;;;;;;;;;;5049860;28;20221;-89
2020/12/03 05:36:37;;;;;;;63.37;39.33;;;;;;;;;;5049200;28;20184;-89
2020/12/03 05:39:13;;;;;;;62.10;38.47;;;;;;;;;;5049290;28;20180;-89
2020/12/03 05:41:49;;;;;;;60.00;38.57;;;;;;;;;;5049201;28;20654;-89
2020/12/03 05:44:29;;;;;;;57.67;38.20;;;;;;;;;;5049545;28;20211;-89
2020/12/03 05:47:01;;;;;;;53.30;35.23;;;;;;;;;;5049350;28;20750;-89
2020/12/03 05:49:31;;;;;;;63.40;38.10;;;;;;;;;;5049342;28;20549;-89
2020/12/03 05:52:15;;;;;;;56.70;37.93;;;;;;;;;;5049079;28;20184;-89
2020/12/03 05:54:58;;;;;;;55.97;37.13;;;;;;;;;;5048958;28;20259;-89
2020/12/03 05:57:31;;;;;;;62.67;38.73;;;;;;;;;;5049246;28;20226;-89
2020/12/03 06:00:11;;;;;;;60.80;38.53;;;;;;;;;;5049326;28;20173;-89
2020/12/03 06:02:55;;;;;;;55.23;37.80;;;;;;;;;;5049264;28;20664;-89
2020/12/03 06:05:30;;;;;;;60.27;39.63;;;;;;;;;;5033731;28;20200;-89
2020/12/03 06:08:33;;;;;;;58.23;38.60;;;;;;;;;;5046635;28;20266;-89
2020/12/03 06:11:25;;;;;;;62.17;40.17;;;;;;;;;;5049074;28;20177;-89
2020/12/03 06:13:57;;;;;;;57.00;38.47;;;;;;;;;;5025581;28;20188;-89
2020/12/03 06:16:44;;;;;;;57.03;38.83;;;;;;;;;;5048572;28;20215;-89
2020/12/03 06:19:15;;;;;;;60.47;38.27;;;;;;;;;;5048650;28;20180;-89
2020/12/03 06:22:01;;;;;;;59.97;40.50;;;;;;;;;;5049362;28;20672;-89
2020/12/03 06:24:47;;;;;;;58.80;36.77;;;;;;;;;;5048611;28;20188;-89
2020/12/03 06:27:30;;;;;;;64.20;41.37;;;;;;;;;;5048660;28;20208;-90
2020/12/03 06:30:18;;;;;;;58.13;37.33;;;;;;;;;;5048455;28;20187;-89
2020/12/03 06:32:51;;;;;;;65.47;38.50;;;;;;;;;;5048488;28;20180;-89
2020/12/03 06:35:27;;;;;;;65.67;39.80;;;;;;;;;;5048864;28;20208;-89
2020/12/03 06:37:57;;;;;;;57.20;35.90;;;;;;;;;;5048718;28;20189;-89
2020/12/03 06:40:31;;;;;;;58.73;38.27;;;;;;;;;;5048716;28;20181;-89
2020/12/03 06:43:11;;;;;;;59.03;38.00;;;;;;;;;;5048378;28;20184;-89
2020/12/03 06:45:49;;;;;;;62.97;38.73;;;;;;;;;;5048884;28;20688;-89
2020/12/03 06:48:37;;;;;;;57.13;37.80;;;;;;;;;;5033067;28;20189;-89
2020/12/03 06:51:15;;;;;;;61.17;37.90;;;;;;;;;;5052234;28;20176;-89
2020/12/03 06:53:58;;;;;;;61.13;38.07;;;;;;;;;;5052470;28;20161;-89
2020/12/03 06:56:47;;;;;;;61.70;40.17;;;;;;;;;;5052340;28;20284;-89
2020/12/03 06:59:21;;;;;;;60.77;36.60;;;;;;;;;;5052287;28;20177;-89
2020/12/03 07:02:07;;;;;;;62.73;38.87;;;;;;;;;;5052501;28;20185;-88
2020/12/03 07:04:44;;;;;;;60.27;37.17;;;;;;;;;;5036750;28;20177;-89
2020/12/03 07:07:19;;;;;;;66.50;38.47;;;;;;;;;;5052225;28;20197;-89
2020/12/03 07:10:08;;;;;;;65.00;40.87;;;;;;;;;;5052421;28;20226;-89
2020/12/03 07:13:09;;;;;;;61.83;38.87;;;;;;;;;;5052729;28;20179;-89
2020/12/03 07:15:57;;;;;;;59.93;36.67;;;;;;;;;;4984791;28;20206;-89
2020/12/03 07:18:44;;;;;;;60.47;37.20;;;;;;;;;;5051795;28;20196;-89
2020/12/03 07:21:28;;;;;;;56.73;36.60;;;;;;;;;;5051934;28;20172;-89
2020/12/03 07:24:14;;;;;;;61.33;39.10;;;;;;;;;;5052115;28;20263;-89
2020/12/03 07:26:42;;;;;;;66.43;39.27;;;;;;;;;;5052463;28;20566;-89
2020/12/03 07:29:19;;;;;;;58.07;37.83;;;;;;;;;;5051760;28;20222;-89
2020/12/03 07:31:50;;;;;;;59.47;37.70;;;;;;;;;;5051677;28;20171;-89
2020/12/03 07:34:40;;;;;;;57.87;39.20;;;;;;;;;;5051701;28;20203;-89
2020/12/03 07:37:25;;;;;;;61.67;39.13;;;;;;;;;;5051543;28;20196;-89
2020/12/03 07:39:58;;;;;;;60.70;38.53;;;;;;;;;;5052393;28;20544;-89
2020/12/03 07:42:27;;;;;;;59.17;36.67;;;;;;;;;;5051402;28;20185;-89
2020/12/03 07:44:57;;;;;;;62.60;40.03;;;;;;;;;;5051574;28;20207;-89
2020/12/03 07:47:31;;;;;;;56.87;36.37;;;;;;;;;;5052310;28;20205;-88
2020/12/03 07:50:07;;;;;;;62.07;37.50;;;;;;;;;;5051401;28;20230;-88
2020/12/03 07:52:41;;;;;;;56.33;36.97;;;;;;;;;;5051245;28;20165;-89
2020/12/03 07:55:29;;;;;;;60.70;38.03;;;;;;;;;;5051167;28;20224;-89
2020/12/03 07:58:06;;;;;;;56.40;38.43;;;;;;;;;;5051358;28;20670;-89
2020/12/03 08:00:51;;;;;;;61.50;36.73;;;;;;;;;;5036086;28;20166;-89
2020/12/03 08:03:41;;;;;;;58.73;36.80;;;;;;;;;;5051391;28;20570;-88
2020/12/03 08:06:16;;;;;;;58.53;36.83;;;;;;;;;;5035503;28;20198;-89
2020/12/03 08:09:07;;;;;;;54.80;37.00;;;;;;;;;;5051247;28;20168;-89
2020/12/03 08:11:45;;;;;;;66.40;36.17;;;;;;;;;;5051518;28;20161;-88
2020/12/03 08:14:31;;;;;;;57.40;37.43;;;;;;;;;;5051166;28;20285;-89
2020/12/03 08:17:02;;;;;;;67.67;39.43;;;;;;;;;;5051062;28;20210;-89
2020/12/03 08:19:32;;;;;;;56.43;37.57;;;;;;;;;;5050785;28;20192;-89
2020/12/03 08:22:09;;;;;;;56.83;35.27;;;;;;;;;;5050774;28;20672;-89
2020/12/03 08:24:41;;;;;;;57.50;34.37;;;;;;;;;;5051244;28;20190;-89
2020/12/03 08:27:21;;;;;;;60.80;38.60;;;;;;;;;;5035441;28;20590;-89
2020/12/03 08:29:55;;;;;;;59.00;36.67;;;;;;;;;;5050646;28;20231;-89
2020/12/03 08:32:25;;;;;;;60.13;36.57;;;;;;;;;;5050625;28;20180;-89
2020/12/03 08:34:52;;;;;;;56.13;35.27;;;;;;;;;;5050469;28;20177;-89
2020/12/03 08:37:26;;;;;;;57.73;37.60;;;;;;;;;;5050449;28;20196;-89
2020/12/03 08:39:57;;;;;;;63.27;37.90;;;;;;;;;;5050597;28;20258;-89
2020/12/03 08:42:29;;;;;;;57.33;35.40;;;;;;;;;;5050490;28;20170;-89
2020/12/03 08:45:01;;;;;;;58.23;35.47;;;;;;;;;;5050603;28;20204;-88
2020/12/03 08:47:40;;;;;;;58.43;36.73;;;;;;;;;;5050402;28;20670;-89
2020/12/03 08:50:13;;;;;;;56.87;34.97;;;;;;;;;;5050408;28;20173;-89
2020/12/03 08:52:40;;;;;;;58.47;35.37;;;;;;;;;;5050445;28;20181;-89
2020/12/03 08:55:10;;;;;;;59.00;37.43;;;;;;;;;;5050336;28;20244;-89
2020/12/03 08:57:41;;;;;;;53.40;35.33;;;;;;;;;;5050342;28;20205;-89
2020/12/03 09:00:18;;;;;;;54.53;35.20;;;;;;;;;;5050090;28;20172;-88
2020/12/03 09:02:46;;;;;;;56.17;37.13;;;;;;;;;;5050263;28;20182;-88
2020/12/03 09:05:16;;;;;;;54.33;35.83;;;;;;;;;;5050082;28;20710;-89
2020/12/03 09:07:51;;;;;;;52.60;34.03;;;;;;;;;;5050019;28;20281;-89
2020/12/03 09:10:24;;;;;;;54.33;35.47;;;;;;;;;;5049940;28;20218;-89
2020/12/03 09:12:57;;;;;;;56.20;35.50;;;;;;;;;;5049370;28;20191;-89
2020/12/03 09:15:30;;;;;;;55.83;35.37;;;;;;;;;;5049888;28;20527;-88
2020/12/03 09:18:01;;;;;;;53.30;34.33;;;;;;;;;;5049587;28;20303;-88
2020/12/03 09:20:32;;;;;;;54.73;35.23;;;;;;;;;;5049935;28;20621;-88
2020/12/03 09:23:09;;;;;;;57.63;35.93;;;;;;;;;;5049672;28;20266;-88
2020/12/03 09:25:40;;;;;;;55.50;35.33;;;;;;;;;;5049615;28;20200;-88
2020/12/03 09:28:10;;;;;;;56.67;36.77;;;;;;;;;;5049396;28;20337;-89
2020/12/03 09:30:40;;;;;;;55.87;34.37;;;;;;;;;;5049615;28;20176;-89
2020/12/03 09:33:13;;;;;;;56.37;35.27;;;;;;;;;;5049387;28;20169;-89
2020/12/03 09:35:41;;;;;;;55.20;36.57;;;;;;;;;;5049507;28;20172;-89
2020/12/03 09:38:11;;;;;;;53.97;36.77;;;;;;;;;;5049594;28;20208;-88
2020/12/03 09:40:46;;;;;;;57.00;36.77;;;;;;;;;;5049257;28;20658;-89
2020/12/03 09:43:21;;;;;;;54.10;34.37;;;;;;;;;;5049280;28;20177;-88
2020/12/03 09:45:59;;;;;;;58.20;34.73;;;;;;;;;;5034149;28;20548;-88
2020/12/03 09:48:26;;;;;;;51.47;32.93;;;;;;;;;;5049692;28;20304;-88
2020/12/03 09:50:56;;;;;;;52.67;34.10;;;;;;;;;;5049068;28;20175;-88
2020/12/03 09:53:27;;;;;;;52.90;33.07;;;;;;;;;;5049172;28;20534;-89
2020/12/03 09:56:04;;;;;;;55.90;34.50;;;;;;;;;;5049432;28;20591;-88
2020/12/03 09:58:35;;;;;;;56.47;34.60;;;;;;;;;;5048985;28;20179;-88
2020/12/03 10:01:08;;;;;;;54.60;33.37;;;;;;;;;;5049133;28;20179;-88
2020/12/03 10:03:57;;;;;;;52.57;33.63;;;;;;;;;;5048914;28;20248;-89
2020/12/03 10:06:31;;;;;;;54.17;33.57;;;;;;;;;;5049084;28;20611;-88
2020/12/03 10:09:06;;;;;;;50.67;33.03;;;;;;;;;;5049010;28;20189;-89
2020/12/03 10:11:55;;;;;;;52.40;34.03;;;;;;;;;;5049126;28;20183;-88
2020/12/03 10:14:50;;;;;;;52.97;30.90;;;;;;;;;;5048801;28;20228;-89
2020/12/03 10:17:24;;;;;;;49.23;31.03;;;;;;;;;;5061558;22;20243;-86
2020/12/03 10:19:56;;;;;;;49.23;31.50;;;;;;;;;;5053094;28;20539;-88
2020/12/03 10:22:31;;;;;;;56.77;32.70;;;;;;;;;;5053384;28;20174;-88
2020/12/03 10:25:08;;;;;;;47.60;31.57;;;;;;;;;;5050947;28;20199;-88
2020/12/03 10:27:55;;;;;;;48.40;30.00;;;;;;;;;;5051779;28;20708;-88
2020/12/03 10:30:37;;;;;;;50.03;31.20;;;;;;;;;;5051858;28;20168;-87
2020/12/03 10:33:17;;;;;;;49.50;31.47;;;;;;;;;;5051783;28;20206;-87
2020/12/03 10:35:50;;;;;;;50.27;30.47;;;;;;;;;;5052916;28;20183;-87
2020/12/03 10:38:23;;;;;;;46.27;30.03;;;;;;;;;;5051630;28;20195;-87
2020/12/03 10:41:04;;;;;;;48.57;30.67;;;;;;;;;;5051669;28;20180;-87
2020/12/03 10:43:37;;;;;;;47.77;30.00;;;;;;;;;;5052911;28;20178;-87
2020/12/03 10:46:12;;;;;;;43.03;28.50;;;;;;;;;;5051552;28;20200;-88
2020/12/03 10:48:43;;;;;;;48.63;31.73;;;;;;;;;;5052704;28;20223;-87
2020/12/03 10:51:10;;;;;;;46.87;30.70;;;;;;;;;;5052962;28;20169;-87
2020/12/03 10:53:41;;;;;;;52.67;31.00;;;;;;;;;;5052951;28;20247;-87
2020/12/03 10:56:08;;;;;;;44.47;30.13;;;;;;;;;;5053091;28;20190;-87
2020/12/03 10:58:38;;;;;;;46.60;31.73;;;;;;;;;;5052736;28;20698;-88
2020/12/03 11:01:18;;;;;;;43.97;27.03;;;;;;;;;;5051491;28;20185;-88
2020/12/03 11:03:47;;;;;;;47.83;30.13;;;;;;;;;;5052853;28;20643;-87
2020/12/03 11:06:24;;;;;;;46.57;29.90;;;;;;;;;;5052687;28;20207;-86
2020/12/03 11:08:55;;;;;;;42.97;29.07;;;;;;;;;;5053116;28;20516;-86
2020/12/03 11:11:31;;;;;;;44.20;28.23;;;;;;;;;;5051408;28;20175;-86
2020/12/03 11:14:00;;;;;;;47.07;30.13;;;;;;;;;;5051846;28;20177;-87
2020/12/03 11:16:33;;;;;;;42.07;28.60;;;;;;;;;;5051273;28;20180;-88
2020/12/03 11:19:03;;;;;;;42.63;29.23;;;;;;;;;;5051663;28;20224;-89
2020/12/03 11:21:31;;;;;;;42.17;28.57;;;;;;;;;;5052100;28;20184;-88
2020/12/03 11:24:05;;;;;;;45.57;30.17;;;;;;;;;;5051372;28;20528;-89
2020/12/03 11:26:44;;;;;;;48.90;30.23;;;;;;;;;;5051403;28;20199;-89
2020/12/03 11:29:16;;;;;;;45.23;28.80;;;;;;;;;;5051815;28;20178;-89
2020/12/03 11:31:43;;;;;;;41.77;28.43;;;;;;;;;;5051311;28;20200;-89
2020/12/03 11:34:11;;;;;;;38.73;26.43;;;;;;;;;;5051186;28;20321;-89
2020/12/03 11:36:40;;;;;;;46.23;28.57;;;;;;;;;;5054380;28;20547;-90
2020/12/03 11:39:09;;;;;;;42.10;28.37;;;;;;;;;;5054908;28;20651;-89
2020/12/03 11:49:50;;;;;;;39.00;27.27;;;;;;;;;;5056283;28;20643;-89
2020/12/03 11:52:18;;;;;;;40.20;27.63;;;;;;;;;;5054637;28;20201;-87
2020/12/03 11:54:46;;;;;;;43.20;27.37;;;;;;;;;;5055939;28;20175;-88
2020/12/03 11:57:16;;;;;;;42.53;28.17;;;;;;;;;;5056043;28;20211;-88
2020/12/03 11:59:45;;;;;;;38.60;27.03;;;;;;;;;;5055989;28;20213;-87
2020/12/03 12:02:15;;;;;;;41.93;28.43;;;;;;;;;;5054365;28;20253;-87
2020/12/03 12:10:10;;;;;;;38.87;27.67;;;;;;;;;;5055564;28;20177;-89
2020/12/03 12:12:36;;;;;;;42.77;28.33;;;;;;;;;;5055485;28;20643;-89
2020/12/03 12:15:06;;;;;;;38.83;27.90;;;;;;;;;;5054144;28;20183;-89
2020/12/03 12:17:36;;;;;;;38.03;26.27;;;;;;;;;;5053966;28;20308;-89
2020/12/03 12:20:09;;;;;;;39.27;27.60;;;;;;;;;;5054198;28;20176;-89
2020/12/03 12:22:41;;;;;;;40.33;26.83;;;;;;;;;;5054260;28;20183;-89
2020/12/03 12:25:14;;;;;;;37.80;26.50;;;;;;;;;;5054142;28;20241;-89
2020/12/03 12:27:45;;;;;;;39.67;27.47;;;;;;;;;;5055438;28;20192;-89
2020/12/03 12:30:12;;;;;;;39.50;25.73;;;;;;;;;;5053943;28;20176;-89
2020/12/03 12:32:39;;;;;;;40.80;28.60;;;;;;;;;;5053931;28;20179;-88
2020/12/03 12:35:06;;;;;;;42.77;25.07;;;;;;;;;;5053885;28;20195;-89
2020/12/03 12:37:38;;;;;;;39.60;25.63;;;;;;;;;;5053936;28;20256;-89
2020/12/03 12:40:10;;;;;;;39.70;27.13;;;;;;;;;;5053837;28;20179;-89
2020/12/03 12:42:41;;;;;;;37.53;26.67;;;;;;;;;;5053614;28;20184;-89
2020/12/03 12:45:11;;;;;;;38.80;26.17;;;;;;;;;;5053809;28;20200;-89
2020/12/03 12:47:44;;;;;;;45.93;26.00;;;;;;;;;;5052614;28;20286;-89
2020/12/03 12:50:11;;;;;;;40.37;26.87;;;;;;;;;;5054471;28;20172;-89
2020/12/03 12:52:45;;;;;;;42.00;27.87;;;;;;;;;;5054663;28;20187;-89
2020/12/03 12:55:14;;;;;;;41.37;27.00;;;;;;;;;;5054986;28;20172;-89
2020/12/03 12:57:43;;;;;;;37.40;26.23;;;;;;;;;;5053513;28;20200;-89
2020/12/03 13:00:11;;;;;;;43.27;28.10;;;;;;;;;;5054582;28;20180;-89
2020/12/03 13:02:44;;;;;;;37.23;27.23;;;;;;;;;;5053636;28;20187;-89
2020/12/03 13:05:15;;;;;;;38.10;25.13;;;;;;;;;;5054515;28;20332;-89
2020/12/03 13:07:49;;;;;;;43.23;28.77;;;;;;;;;;5053153;28;20282;-89
2020/12/03 13:10:20;;;;;;;39.03;27.90;;;;;;;;;;5054686;28;20172;-89
2020/12/03 13:12:52;;;;;;;41.67;29.07;;;;;;;;;;5053053;28;20260;-89
2020/12/03 13:15:20;;;;;;;40.57;26.77;;;;;;;;;;5054638;28;20172;-89
2020/12/03 13:17:50;;;;;;;44.60;29.43;;;;;;;;;;5052895;28;20277;-89
2020/12/03 13:20:19;;;;;;;39.13;28.53;;;;;;;;;;5053716;28;20204;-89
2020/12/03 13:22:51;;;;;;;39.13;26.60;;;;;;;;;;5052843;28;20270;-89
2020/12/03 13:25:20;;;;;;;42.57;27.07;;;;;;;;;;5052827;28;20214;-89
2020/12/03 13:27:51;;;;;;;40.77;28.23;;;;;;;;;;5052828;28;20196;-89
2020/12/03 13:30:19;;;;;;;43.60;27.83;;;;;;;;;;5053549;28;20622;-89
2020/12/03 13:32:52;;;;;;;44.50;27.50;;;;;;;;;;5053967;28;20192;-89
2020/12/03 13:35:24;;;;;;;42.27;28.30;;;;;;;;;;5052673;28;20262;-89
2020/12/03 13:37:57;;;;;;;43.60;29.00;;;;;;;;;;5052560;28;20203;-89
2020/12/03 13:40:29;;;;;;;43.47;28.20;;;;;;;;;;5052648;28;20187;-89
2020/12/03 13:43:00;;;;;;;43.37;25.97;;;;;;;;;;5054028;28;20184;-89
2020/12/03 13:45:34;;;;;;;41.50;26.97;;;;;;;;;;5052480;28;20211;-89
2020/12/03 13:48:02;;;;;;;40.60;28.50;;;;;;;;;;5053579;28;20672;-89
2020/12/03 13:50:33;;;;;;;40.33;26.57;;;;;;;;;;5053775;28;20171;-89
2020/12/03 13:53:01;;;;;;;44.43;27.77;;;;;;;;;;5053890;28;20550;-89
2020/12/03 13:55:32;;;;;;;39.13;26.90;;;;;;;;;;5052435;28;20233;-89
2020/12/03 13:58:04;;;;;;;38.23;26.47;;;;;;;;;;5052487;28;20287;-88
2020/12/03 14:00:33;;;;;;;45.27;27.50;;;;;;;;;;5052413;28;20211;-89
2020/12/03 14:03:01;;;;;;;36.80;25.57;;;;;;;;;;5052259;28;20183;-89
2020/12/03 14:05:29;;;;;;;41.90;28.93;;;;;;;;;;5053372;28;20203;-89
2020/12/03 14:07:58;;;;;;;42.67;29.40;;;;;;;;;;5052440;28;20292;-89
2020/12/03 14:10:26;;;;;;;42.13;26.37;;;;;;;;;;5052227;28;20204;-89
2020/12/03 14:12:57;;;;;;;40.13;26.23;;;;;;;;;;5052322;28;20187;-89
2020/12/03 14:15:25;;;;;;;39.97;26.67;;;;;;;;;;5053653;28;20179;-88
2020/12/03 14:17:53;;;;;;;37.53;25.37;;;;;;;;;;5053137;28;20214;-88
2020/12/03 14:20:20;;;;;;;39.03;27.33;;;;;;;;;;5053199;28;20184;-88
2020/12/03 14:22:47;;;;;;;37.60;25.83;;;;;;;;;;5053371;28;20213;-88
2020/12/03 14:25:19;;;;;;;40.90;26.53;;;;;;;;;;5052076;28;20638;-88
2020/12/03 14:27:51;;;;;;;42.83;28.00;;;;;;;;;;5051801;28;20201;-88
2020/12/03 14:30:25;;;;;;;36.77;24.73;;;;;;;;;;5051887;28;20180;-88
2020/12/03 14:32:57;;;;;;;34.93;24.17;;;;;;;;;;5051878;28;20167;-87
2020/12/03 14:35:23;;;;;;;36.07;24.10;;;;;;;;;;5053458;28;20185;-88
2020/12/03 14:37:55;;;;;;;33.43;23.90;;;;;;;;;;5052928;28;20662;-88
2020/12/03 14:40:25;;;;;;;33.73;24.17;;;;;;;;;;5051849;28;20187;-88
2020/12/03 14:42:52;;;;;;;37.67;25.37;;;;;;;;;;5051656;28;20184;-87
2020/12/03 14:45:23;;;;;;;34.40;23.53;;;;;;;;;;5051666;28;20203;-88
2020/12/03 14:47:55;;;;;;;33.57;23.13;;;;;;;;;;5051820;28;20198;-88
2020/12/03 14:50:28;;;;;;;39.47;24.93;;;;;;;;;;5052321;28;20533;-88
2020/12/03 14:53:00;;;;;;;34.57;24.10;;;;;;;;;;5051730;28;20540;-88
2020/12/03 14:55:38;;;;;;;31.77;23.23;;;;;;;;;;5052847;28;20190;-88
2020/12/03 14:58:08;;;;;;;37.37;25.37;;;;;;;;;;5051918;28;20578;-87
2020/12/03 15:00:37;;;;;;;38.53;26.20;;;;;;;;;;5051682;28;20256;-88
2020/12/03 15:03:08;;;;;;;37.83;26.43;;;;;;;;;;5051578;28;20183;-88
2020/12/03 15:05:39;;;;;;;33.70;24.23;;;;;;;;;;5051787;28;20211;-88